sensor_id;sensor_type;location;lat;lon;timestamp;pressure;altitude;pressure_sealevel;temperature;humidity
54455;BME280;40364;52.270;10.546;2023-12-04T00:01:50;100954.13;;;6.81;56.58
54455;BME280;40364;52.270;10.546;2023-12-04T00:04:18;100945.38;;;7.37;54.63
54455;BME280;40364;52.270;10.546;2023-12-04T00:06:44;100941.28;;;7.35;54.01
54455;BME280;40364;52.270;10.546;2023-12-04T00:09:12;100941.81;;;7.59;53.86
54455;BME280;40364;52.270;10.546;2023-12-04T00:11:39;100933.94;;;7.53;53.26
54455;BME280;40364;52.270;10.546;2023-12-04T00:14:06;100932.72;;;7.23;53.60
54455;BME280;40364;52.270;10.546;2023-12-04T00:16:33;100924.94;;;7.11;54.56
54455;BME280;40364;52.270;10.546;2023-12-04T00:19:00;100924.31;;;7.14;53.98
54455;BME280;40364;52.270;10.546;2023-12-04T00:21:29;100922.25;;;7.64;53.39
54455;BME280;40364;52.270;10.546;2023-12-04T00:23:55;100921.94;;;7.43;52.96
54455;BME280;40364;52.270;10.546;2023-12-04T00:26:22;100917.22;;;7.66;52.39
54455;BME280;40364;52.270;10.546;2023-12-04T00:28:48;100921.09;;;7.57;52.17
54455;BME280;40364;52.270;10.546;2023-12-04T00:31:15;100904.75;;;7.33;52.19
54455;BME280;40364;52.270;10.546;2023-12-04T00:33:42;100914.91;;;7.60;52.34
54455;BME280;40364;52.270;10.546;2023-12-04T00:36:10;100905.34;;;7.97;51.56
54455;BME280;40364;52.270;10.546;2023-12-04T00:38:38;100900.44;;;7.94;51.56
54455;BME280;40364;52.270;10.546;2023-12-04T00:41:05;100898.31;;;7.91;51.29
54455;BME280;40364;52.270;10.546;2023-12-04T00:43:32;100895.91;;;7.75;51.10
54455;BME280;40364;52.270;10.546;2023-12-04T00:45:58;100891.84;;;7.28;52.71
54455;BME280;40364;52.270;10.546;2023-12-04T00:48:25;100888.59;;;7.13;53.13
54455;BME280;40364;52.270;10.546;2023-12-04T00:50:52;100893.56;;;7.60;51.88
54455;BME280;40364;52.270;10.546;2023-12-04T00:53:18;100894.81;;;7.54;52.07
54455;BME280;40364;52.270;10.546;2023-12-04T00:55:47;100882.81;;;7.90;51.82
54455;BME280;40364;52.270;10.546;2023-12-04T00:58:13;100898.94;;;7.65;51.40
54455;BME280;40364;52.270;10.546;2023-12-04T01:00:40;100882.56;;;7.77;51.50
54455;BME280;40364;52.270;10.546;2023-12-04T01:03:06;100886.06;;;7.92;51.17
54455;BME280;40364;52.270;10.546;2023-12-04T01:05:33;100877.75;;;7.92;50.96
54455;BME280;40364;52.270;10.546;2023-12-04T01:08:00;100868.19;;;8.06;51.02
54455;BME280;40364;52.270;10.546;2023-12-04T01:10:27;100872.47;;;8.13;50.42
54455;BME280;40364;52.270;10.546;2023-12-04T01:12:55;100858.34;;;7.92;50.72
54455;BME280;40364;52.270;10.546;2023-12-04T01:15:22;100855.72;;;7.64;50.85
54455;BME280;40364;52.270;10.546;2023-12-04T01:17:49;100853.75;;;7.96;50.30
54455;BME280;40364;52.270;10.546;2023-12-04T01:20:16;100853.31;;;7.71;50.98
54455;BME280;40364;52.270;10.546;2023-12-04T01:22:42;100858.09;;;8.10;49.93
54455;BME280;40364;52.270;10.546;2023-12-04T01:25:09;100848.63;;;8.11;49.87
54455;BME280;40364;52.270;10.546;2023-12-04T01:27:36;100847.38;;;7.56;50.30
54455;BME280;40364;52.270;10.546;2023-12-04T01:30:05;100839.63;;;8.06;50.15
54455;BME280;40364;52.270;10.546;2023-12-04T01:32:34;100830.19;;;6.51;52.80
54455;BME280;40364;52.270;10.546;2023-12-04T01:35:01;100837.72;;;7.53;51.25
54455;BME280;40364;52.270;10.546;2023-12-04T01:37:27;100834.09;;;7.75;51.00
54455;BME280;40364;52.270;10.546;2023-12-04T01:39:54;100835.97;;;7.88;50.25
54455;BME280;40364;52.270;10.546;2023-12-04T01:42:21;100835.88;;;8.10;49.72
54455;BME280;40364;52.270;10.546;2023-12-04T01:44:48;100826.06;;;8.04;50.00
54455;BME280;40364;52.270;10.546;2023-12-04T01:47:17;100824.19;;;8.31;49.77
54455;BME280;40364;52.270;10.546;2023-12-04T01:49:44;100823.00;;;7.75;50.01
54455;BME280;40364;52.270;10.546;2023-12-04T01:52:11;100816.09;;;7.33;50.67
54455;BME280;40364;52.270;10.546;2023-12-04T01:54:38;100824.06;;;7.88;49.81
54455;BME280;40364;52.270;10.546;2023-12-04T01:57:06;100827.28;;;7.81;50.60
54455;BME280;40364;52.270;10.546;2023-12-04T01:59:33;100825.59;;;7.18;51.51
54455;BME280;40364;52.270;10.546;2023-12-04T02:02:00;100820.88;;;8.11;49.94
54455;BME280;40364;52.270;10.546;2023-12-04T02:04:30;100823.44;;;8.39;49.42
54455;BME280;40364;52.270;10.546;2023-12-04T02:06:57;100817.00;;;8.30;49.07
54455;BME280;40364;52.270;10.546;2023-12-04T02:09:24;100810.53;;;7.33;50.31
54455;BME280;40364;52.270;10.546;2023-12-04T02:11:52;100805.56;;;8.14;49.14
54455;BME280;40364;52.270;10.546;2023-12-04T02:14:19;100811.09;;;7.74;49.69
54455;BME280;40364;52.270;10.546;2023-12-04T02:16:46;100805.88;;;7.20;50.98
54455;BME280;40364;52.270;10.546;2023-12-04T02:19:13;100799.53;;;6.61;51.98
54455;BME280;40364;52.270;10.546;2023-12-04T02:21:41;100797.94;;;7.27;52.31
54455;BME280;40364;52.270;10.546;2023-12-04T02:24:09;100791.59;;;7.97;50.47
54455;BME280;40364;52.270;10.546;2023-12-04T02:26:40;100778.53;;;8.37;49.61
54455;BME280;40364;52.270;10.546;2023-12-04T02:29:14;100780.94;;;8.21;49.56
54455;BME280;40364;52.270;10.546;2023-12-04T02:31:42;100775.38;;;8.21;49.29
54455;BME280;40364;52.270;10.546;2023-12-04T02:34:11;100783.34;;;7.13;50.74
54455;BME280;40364;52.270;10.546;2023-12-04T02:36:40;100780.06;;;7.33;51.57
54455;BME280;40364;52.270;10.546;2023-12-04T02:39:09;100770.84;;;7.86;50.20
54455;BME280;40364;52.270;10.546;2023-12-04T02:41:36;100775.66;;;7.09;50.62
54455;BME280;40364;52.270;10.546;2023-12-04T02:44:03;100785.66;;;6.38;52.72
54455;BME280;40364;52.270;10.546;2023-12-04T02:46:29;100770.53;;;6.08;53.42
54455;BME280;40364;52.270;10.546;2023-12-04T02:48:56;100775.69;;;6.73;51.29
54455;BME280;40364;52.270;10.546;2023-12-04T02:51:23;100769.72;;;6.58;52.53
54455;BME280;40364;52.270;10.546;2023-12-04T02:53:51;100762.31;;;7.12;51.53
54455;BME280;40364;52.270;10.546;2023-12-04T02:56:19;100761.09;;;7.97;49.89
54455;BME280;40364;52.270;10.546;2023-12-04T02:58:46;100750.72;;;8.28;49.05
54455;BME280;40364;52.270;10.546;2023-12-04T03:01:12;100747.88;;;7.94;49.04
54455;BME280;40364;52.270;10.546;2023-12-04T03:03:39;100731.16;;;8.33;48.38
54455;BME280;40364;52.270;10.546;2023-12-04T03:06:06;100724.91;;;8.10;48.19
54455;BME280;40364;52.270;10.546;2023-12-04T03:08:33;100721.22;;;8.58;47.63
54455;BME280;40364;52.270;10.546;2023-12-04T03:11:01;100721.41;;;8.53;47.78
54455;BME280;40364;52.270;10.546;2023-12-04T03:13:29;100714.03;;;8.83;47.63
54455;BME280;40364;52.270;10.546;2023-12-04T03:15:56;100728.22;;;7.73;48.88
54455;BME280;40364;52.270;10.546;2023-12-04T03:18:22;100718.41;;;8.24;48.28
54455;BME280;40364;52.270;10.546;2023-12-04T03:20:51;100710.59;;;8.60;47.64
54455;BME280;40364;52.270;10.546;2023-12-04T03:23:17;100708.50;;;8.40;47.57
54455;BME280;40364;52.270;10.546;2023-12-04T03:25:44;100704.22;;;8.60;47.40
54455;BME280;40364;52.270;10.546;2023-12-04T03:28:10;100701.63;;;8.37;47.98
54455;BME280;40364;52.270;10.546;2023-12-04T03:30:39;100692.00;;;8.35;48.32
54455;BME280;40364;52.270;10.546;2023-12-04T03:33:08;100689.16;;;8.26;48.30
54455;BME280;40364;52.270;10.546;2023-12-04T03:35:35;100692.63;;;8.66;47.73
54455;BME280;40364;52.270;10.546;2023-12-04T03:38:01;100685.94;;;8.59;47.65
54455;BME280;40364;52.270;10.546;2023-12-04T03:40:28;100678.25;;;8.21;48.17
54455;BME280;40364;52.270;10.546;2023-12-04T03:42:55;100676.47;;;8.60;47.39
54455;BME280;40364;52.270;10.546;2023-12-04T03:45:21;100686.50;;;7.87;49.20
54455;BME280;40364;52.270;10.546;2023-12-04T03:47:49;100685.94;;;8.24;49.00
54455;BME280;40364;52.270;10.546;2023-12-04T03:50:16;100689.03;;;8.57;47.73
54455;BME280;40364;52.270;10.546;2023-12-04T03:52:43;100691.00;;;8.57;47.79
54455;BME280;40364;52.270;10.546;2023-12-04T03:55:09;100687.16;;;7.84;49.59
54455;BME280;40364;52.270;10.546;2023-12-04T03:57:36;100680.09;;;8.52;48.71
54455;BME280;40364;52.270;10.546;2023-12-04T04:00:04;100675.25;;;8.00;49.42
54455;BME280;40364;52.270;10.546;2023-12-04T04:02:31;100675.31;;;8.69;48.77
54455;BME280;40364;52.270;10.546;2023-12-04T04:04:59;100669.41;;;8.97;48.21
54455;BME280;40364;52.270;10.546;2023-12-04T04:07:26;100666.38;;;8.47;48.67
54455;BME280;40364;52.270;10.546;2023-12-04T04:09:53;100659.00;;;8.42;49.17
54455;BME280;40364;52.270;10.546;2023-12-04T04:12:19;100655.56;;;8.71;48.83
54455;BME280;40364;52.270;10.546;2023-12-04T04:14:46;100643.31;;;8.20;49.46
54455;BME280;40364;52.270;10.546;2023-12-04T04:17:13;100642.47;;;7.94;50.14
54455;BME280;40364;52.270;10.546;2023-12-04T04:19:40;100640.03;;;8.61;49.75
54455;BME280;40364;52.270;10.546;2023-12-04T04:22:08;100642.03;;;8.35;49.57
54455;BME280;40364;52.270;10.546;2023-12-04T04:24:35;100630.44;;;8.41;49.28
54455;BME280;40364;52.270;10.546;2023-12-04T04:27:02;100621.28;;;8.15;49.30
54455;BME280;40364;52.270;10.546;2023-12-04T04:29:29;100615.91;;;8.53;48.84
54455;BME280;40364;52.270;10.546;2023-12-04T04:31:55;100619.22;;;8.93;48.27
54455;BME280;40364;52.270;10.546;2023-12-04T04:34:22;100620.34;;;9.01;48.27
54455;BME280;40364;52.270;10.546;2023-12-04T04:36:49;100605.94;;;8.52;48.71
54455;BME280;40364;52.270;10.546;2023-12-04T04:39:17;100604.03;;;8.91;48.82
54455;BME280;40364;52.270;10.546;2023-12-04T04:41:44;100593.09;;;7.39;51.11
54455;BME280;40364;52.270;10.546;2023-12-04T04:44:11;100588.09;;;7.10;52.46
54455;BME280;40364;52.270;10.546;2023-12-04T04:46:37;100590.59;;;8.20;49.98
54455;BME280;40364;52.270;10.546;2023-12-04T04:49:04;100578.16;;;7.57;51.53
54455;BME280;40364;52.270;10.546;2023-12-04T04:51:32;100575.16;;;7.36;52.16
54455;BME280;40364;52.270;10.546;2023-12-04T04:53:59;100567.47;;;7.25;52.32
54455;BME280;40364;52.270;10.546;2023-12-04T04:56:27;100565.25;;;7.70;51.58
54455;BME280;40364;52.270;10.546;2023-12-04T04:58:53;100567.25;;;7.78;51.41
54455;BME280;40364;52.270;10.546;2023-12-04T05:01:20;100558.91;;;7.69;51.05
54455;BME280;40364;52.270;10.546;2023-12-04T05:03:47;100550.22;;;7.36;51.46
54455;BME280;40364;52.270;10.546;2023-12-04T05:06:14;100550.09;;;6.93;51.82
54455;BME280;40364;52.270;10.546;2023-12-04T05:08:40;100541.75;;;7.41;51.65
54455;BME280;40364;52.270;10.546;2023-12-04T05:11:07;100538.97;;;7.33;51.21
54455;BME280;40364;52.270;10.546;2023-12-04T05:13:35;100546.69;;;7.96;50.27
54455;BME280;40364;52.270;10.546;2023-12-04T05:16:02;100541.13;;;7.96;49.53
54455;BME280;40364;52.270;10.546;2023-12-04T05:18:28;100537.38;;;7.66;49.47
54455;BME280;40364;52.270;10.546;2023-12-04T05:20:55;100548.63;;;8.48;48.84
54455;BME280;40364;52.270;10.546;2023-12-04T05:23:22;100542.41;;;8.97;46.50
54455;BME280;40364;52.270;10.546;2023-12-04T05:25:48;100535.72;;;9.28;45.74
54455;BME280;40364;52.270;10.546;2023-12-04T05:28:15;100537.38;;;8.18;46.63
54455;BME280;40364;52.270;10.546;2023-12-04T05:30:43;100536.88;;;8.25;47.26
54455;BME280;40364;52.270;10.546;2023-12-04T05:33:10;100529.22;;;8.39;46.45
54455;BME280;40364;52.270;10.546;2023-12-04T05:35:36;100537.91;;;7.94;46.19
54455;BME280;40364;52.270;10.546;2023-12-04T05:38:03;100527.47;;;7.08;48.30
54455;BME280;40364;52.270;10.546;2023-12-04T05:40:30;100528.09;;;7.88;47.30
54455;BME280;40364;52.270;10.546;2023-12-04T05:42:56;100537.03;;;8.54;46.03
54455;BME280;40364;52.270;10.546;2023-12-04T05:45:23;100526.38;;;8.56;46.18
54455;BME280;40364;52.270;10.546;2023-12-04T05:47:51;100521.19;;;8.93;45.33
54455;BME280;40364;52.270;10.546;2023-12-04T05:50:18;100530.53;;;9.18;44.50
54455;BME280;40364;52.270;10.546;2023-12-04T05:52:45;100521.25;;;9.14;44.17
54455;BME280;40364;52.270;10.546;2023-12-04T05:55:12;100533.59;;;8.95;44.60
54455;BME280;40364;52.270;10.546;2023-12-04T05:57:39;100523.66;;;8.13;46.18
54455;BME280;40364;52.270;10.546;2023-12-04T06:00:07;100522.91;;;8.68;45.50
54455;BME280;40364;52.270;10.546;2023-12-04T06:02:37;100518.47;;;8.75;45.40
54455;BME280;40364;52.270;10.546;2023-12-04T06:05:07;100511.66;;;9.02;44.88
54455;BME280;40364;52.270;10.546;2023-12-04T06:07:34;100509.78;;;8.39;46.26
54455;BME280;40364;52.270;10.546;2023-12-04T06:10:02;100510.47;;;7.84;46.66
54455;BME280;40364;52.270;10.546;2023-12-04T06:12:30;100509.38;;;8.58;45.77
54455;BME280;40364;52.270;10.546;2023-12-04T06:14:57;100511.41;;;8.49;46.24
54455;BME280;40364;52.270;10.546;2023-12-04T06:17:24;100504.34;;;8.89;44.77
54455;BME280;40364;52.270;10.546;2023-12-04T06:19:51;100506.75;;;9.08;44.07
54455;BME280;40364;52.270;10.546;2023-12-04T06:22:22;100501.84;;;8.67;45.37
54455;BME280;40364;52.270;10.546;2023-12-04T06:24:49;100491.88;;;7.85;46.30
54455;BME280;40364;52.270;10.546;2023-12-04T06:27:17;100490.72;;;7.68;47.37
54455;BME280;40364;52.270;10.546;2023-12-04T06:29:46;100493.94;;;8.39;46.01
54455;BME280;40364;52.270;10.546;2023-12-04T06:32:13;100492.47;;;8.33;46.13
54455;BME280;40364;52.270;10.546;2023-12-04T06:34:41;100504.75;;;7.98;46.92
54455;BME280;40364;52.270;10.546;2023-12-04T06:37:09;100487.47;;;7.66;47.29
54455;BME280;40364;52.270;10.546;2023-12-04T06:39:39;100496.88;;;8.43;46.48
54455;BME280;40364;52.270;10.546;2023-12-04T06:42:07;100488.91;;;7.98;47.77
54455;BME280;40364;52.270;10.546;2023-12-04T06:44:35;100491.19;;;8.14;46.92
54455;BME280;40364;52.270;10.546;2023-12-04T06:47:03;100494.63;;;8.19;46.23
54455;BME280;40364;52.270;10.546;2023-12-04T06:49:31;100491.72;;;7.55;47.36
54455;BME280;40364;52.270;10.546;2023-12-04T06:51:58;100489.59;;;7.52;48.20
54455;BME280;40364;52.270;10.546;2023-12-04T06:54:25;100494.25;;;8.29;46.75
54455;BME280;40364;52.270;10.546;2023-12-04T06:56:53;100485.28;;;6.55;50.64
54455;BME280;40364;52.270;10.546;2023-12-04T06:59:21;100487.00;;;7.56;48.40
54455;BME280;40364;52.270;10.546;2023-12-04T07:01:49;100489.19;;;8.40;46.59
54455;BME280;40364;52.270;10.546;2023-12-04T07:04:17;100493.59;;;7.12;49.39
54455;BME280;40364;52.270;10.546;2023-12-04T07:06:46;100487.44;;;8.01;47.65
54455;BME280;40364;52.270;10.546;2023-12-04T07:09:14;100489.19;;;8.40;46.59
54455;BME280;40364;52.270;10.546;2023-12-04T07:11:42;100484.84;;;7.44;48.03
54455;BME280;40364;52.270;10.546;2023-12-04T07:14:11;100491.56;;;8.59;47.28
54455;BME280;40364;52.270;10.546;2023-12-04T07:16:39;100485.09;;;8.55;47.03
54455;BME280;40364;52.270;10.546;2023-12-04T07:19:08;100488.78;;;7.77;48.04
54455;BME280;40364;52.270;10.546;2023-12-04T07:21:36;100482.91;;;7.70;48.44
54455;BME280;40364;52.270;10.546;2023-12-04T07:24:04;100494.50;;;6.41;50.85
54455;BME280;40364;52.270;10.546;2023-12-04T07:26:33;100485.47;;;8.19;47.68
54455;BME280;40364;52.270;10.546;2023-12-04T07:29:00;100492.03;;;7.80;48.05
54455;BME280;40364;52.270;10.546;2023-12-04T07:31:28;100495.00;;;7.92;47.71
54455;BME280;40364;52.270;10.546;2023-12-04T07:33:55;100488.88;;;8.33;47.52
54455;BME280;40364;52.270;10.546;2023-12-04T07:36:22;100490.63;;;8.55;46.50
54455;BME280;40364;52.270;10.546;2023-12-04T07:41:17;100509.16;;;7.30;48.67
54455;BME280;40364;52.270;10.546;2023-12-04T07:43:43;100515.31;;;6.70;50.86
54455;BME280;40364;52.270;10.546;2023-12-04T07:46:10;100513.50;;;6.74;50.98
54455;BME280;40364;52.270;10.546;2023-12-04T07:48:38;100504.88;;;8.44;47.70
54455;BME280;40364;52.270;10.546;2023-12-04T07:51:05;100509.16;;;7.30;49.51
54455;BME280;40364;52.270;10.546;2023-12-04T07:53:33;100499.28;;;6.58;51.04
54455;BME280;40364;52.270;10.546;2023-12-04T07:56:01;100510.03;;;6.99;51.35
54455;BME280;40364;52.270;10.546;2023-12-04T07:58:29;100510.28;;;6.81;51.10
54455;BME280;40364;52.270;10.546;2023-12-04T08:00:56;100505.81;;;7.02;51.56
54455;BME280;40364;52.270;10.546;2023-12-04T08:03:22;100501.00;;;7.68;49.19
54455;BME280;40364;52.270;10.546;2023-12-04T08:05:51;100512.03;;;8.28;49.13
54455;BME280;40364;52.270;10.546;2023-12-04T08:08:18;100512.66;;;7.13;50.21
54455;BME280;40364;52.270;10.546;2023-12-04T08:10:44;100502.78;;;8.07;48.25
54455;BME280;40364;52.270;10.546;2023-12-04T08:13:11;100503.06;;;6.62;50.93
54455;BME280;40364;52.270;10.546;2023-12-04T08:15:38;100497.56;;;6.80;51.12
54455;BME280;40364;52.270;10.546;2023-12-04T08:18:05;100493.50;;;7.51;49.27
54455;BME280;40364;52.270;10.546;2023-12-04T08:20:31;100505.91;;;7.71;48.95
54455;BME280;40364;52.270;10.546;2023-12-04T08:22:59;100492.53;;;7.90;49.21
54455;BME280;40364;52.270;10.546;2023-12-04T08:25:26;100504.25;;;7.44;49.15
54455;BME280;40364;52.270;10.546;2023-12-04T08:27:53;100509.34;;;7.59;49.07
54455;BME280;40364;52.270;10.546;2023-12-04T08:30:19;100501.09;;;7.02;50.36
54455;BME280;40364;52.270;10.546;2023-12-04T08:32:46;100488.91;;;7.38;50.16
54455;BME280;40364;52.270;10.546;2023-12-04T08:35:13;100493.66;;;9.08;46.67
54455;BME280;40364;52.270;10.546;2023-12-04T08:37:39;100495.25;;;7.21;49.89
54455;BME280;40364;52.270;10.546;2023-12-04T08:40:08;100503.13;;;7.80;50.06
54455;BME280;40364;52.270;10.546;2023-12-04T08:42:35;100496.94;;;6.83;51.92
54455;BME280;40364;52.270;10.546;2023-12-04T08:45:03;100499.25;;;6.50;52.80
54455;BME280;40364;52.270;10.546;2023-12-04T08:47:31;100504.53;;;7.17;51.52
54455;BME280;40364;52.270;10.546;2023-12-04T08:50:00;100489.53;;;6.61;52.21
54455;BME280;40364;52.270;10.546;2023-12-04T08:52:27;100500.88;;;6.51;52.97
54455;BME280;40364;52.270;10.546;2023-12-04T08:54:53;100486.78;;;7.18;49.90
54455;BME280;40364;52.270;10.546;2023-12-04T08:57:21;100489.44;;;7.92;49.72
54455;BME280;40364;52.270;10.546;2023-12-04T08:59:48;100492.56;;;6.90;50.44
54455;BME280;40364;52.270;10.546;2023-12-04T09:02:15;100480.03;;;6.93;50.54
54455;BME280;40364;52.270;10.546;2023-12-04T09:04:42;100487.97;;;7.60;49.40
54455;BME280;40364;52.270;10.546;2023-12-04T09:07:08;100483.53;;;8.10;48.40
54455;BME280;40364;52.270;10.546;2023-12-04T09:09:35;100489.09;;;8.66;46.99
54455;BME280;40364;52.270;10.546;2023-12-04T09:12:02;100477.47;;;8.81;46.32
54455;BME280;40364;52.270;10.546;2023-12-04T09:14:30;100470.16;;;9.27;45.90
54455;BME280;40364;52.270;10.546;2023-12-04T09:16:57;100463.75;;;9.05;46.16
54455;BME280;40364;52.270;10.546;2023-12-04T09:19:23;100468.00;;;9.74;44.74
54455;BME280;40364;52.270;10.546;2023-12-04T09:21:50;100460.94;;;9.76;44.44
54455;BME280;40364;52.270;10.546;2023-12-04T09:24:17;100451.88;;;10.00;44.42
54455;BME280;40364;52.270;10.546;2023-12-04T09:26:43;100450.34;;;9.91;44.47
54455;BME280;40364;52.270;10.546;2023-12-04T09:29:11;100455.69;;;9.96;44.25
54455;BME280;40364;52.270;10.546;2023-12-04T09:31:39;100462.31;;;10.24;43.98
54455;BME280;40364;52.270;10.546;2023-12-04T09:34:13;100460.81;;;10.27;43.16
54455;BME280;40364;52.270;10.546;2023-12-04T09:36:43;100463.06;;;10.58;42.52
54455;BME280;40364;52.270;10.546;2023-12-04T09:39:10;100456.09;;;10.52;42.29
54455;BME280;40364;52.270;10.546;2023-12-04T09:41:37;100450.88;;;10.50;42.12
54455;BME280;40364;52.270;10.546;2023-12-04T09:44:05;100436.84;;;10.83;41.82
54455;BME280;40364;52.270;10.546;2023-12-04T09:46:33;100445.41;;;11.14;40.86
54455;BME280;40364;52.270;10.546;2023-12-04T09:49:02;100439.56;;;11.44;40.93
54455;BME280;40364;52.270;10.546;2023-12-04T09:51:30;100441.00;;;11.26;41.04
54455;BME280;40364;52.270;10.546;2023-12-04T09:54:01;100439.72;;;11.63;40.93
54455;BME280;40364;52.270;10.546;2023-12-04T09:56:29;100429.22;;;11.72;40.31
54455;BME280;40364;52.270;10.546;2023-12-04T09:58:58;100435.19;;;10.33;42.22
54455;BME280;40364;52.270;10.546;2023-12-04T10:01:25;100426.63;;;9.72;43.13
54455;BME280;40364;52.270;10.546;2023-12-04T10:03:52;100429.38;;;10.26;43.23
54455;BME280;40364;52.270;10.546;2023-12-04T10:06:21;100414.84;;;11.30;42.07
54455;BME280;40364;52.270;10.546;2023-12-04T10:08:49;100407.00;;;11.48;41.69
54455;BME280;40364;52.270;10.546;2023-12-04T10:11:16;100396.56;;;11.73;40.01
54455;BME280;40364;52.270;10.546;2023-12-04T10:13:42;100402.31;;;11.92;39.57
54455;BME280;40364;52.270;10.546;2023-12-04T10:16:09;100390.81;;;12.09;39.21
54455;BME280;40364;52.270;10.546;2023-12-04T10:18:36;100390.91;;;12.60;38.80
54455;BME280;40364;52.270;10.546;2023-12-04T10:21:03;100388.91;;;12.92;38.63
54455;BME280;40364;52.270;10.546;2023-12-04T10:23:41;100382.94;;;11.84;40.02
54455;BME280;40364;52.270;10.546;2023-12-04T10:26:08;100382.25;;;11.74;39.02
54455;BME280;40364;52.270;10.546;2023-12-04T10:28:35;100379.31;;;11.55;39.29
54455;BME280;40364;52.270;10.546;2023-12-04T10:31:02;100382.50;;;10.77;40.99
54455;BME280;40364;52.270;10.546;2023-12-04T10:33:32;100373.53;;;11.08;40.18
54455;BME280;40364;52.270;10.546;2023-12-04T10:35:59;100374.09;;;10.04;42.31
54455;BME280;40364;52.270;10.546;2023-12-04T10:38:25;100373.28;;;9.37;43.08
54455;BME280;40364;52.270;10.546;2023-12-04T10:40:54;100373.50;;;9.98;42.92
54455;BME280;40364;52.270;10.546;2023-12-04T10:43:22;100368.81;;;10.72;41.43
54455;BME280;40364;52.270;10.546;2023-12-04T10:45:50;100364.13;;;11.40;40.28
54455;BME280;40364;52.270;10.546;2023-12-04T10:48:18;100361.31;;;11.80;39.42
54455;BME280;40364;52.270;10.546;2023-12-04T10:50:46;100360.72;;;11.59;39.89
54455;BME280;40364;52.270;10.546;2023-12-04T10:53:14;100346.88;;;10.70;41.42
54455;BME280;40364;52.270;10.546;2023-12-04T10:55:42;100351.63;;;10.82;40.96
54455;BME280;40364;52.270;10.546;2023-12-04T10:58:12;100354.34;;;11.19;41.04
54455;BME280;40364;52.270;10.546;2023-12-04T11:00:42;100347.16;;;11.45;40.61
54455;BME280;40364;52.270;10.546;2023-12-04T11:03:11;100340.31;;;11.43;40.15
54455;BME280;40364;52.270;10.546;2023-12-04T11:05:40;100333.06;;;10.86;41.11
54455;BME280;40364;52.270;10.546;2023-12-04T11:08:09;100351.59;;;11.34;39.90
54455;BME280;40364;52.270;10.546;2023-12-04T11:10:43;100340.53;;;11.50;39.92
54455;BME280;40364;52.270;10.546;2023-12-04T11:13:16;100344.09;;;10.46;41.52
54455;BME280;40364;52.270;10.546;2023-12-04T11:15:45;100330.44;;;11.05;40.38
54455;BME280;40364;52.270;10.546;2023-12-04T11:18:16;100331.44;;;10.85;40.10
54455;BME280;40364;52.270;10.546;2023-12-04T11:20:48;100320.66;;;11.24;39.52
54455;BME280;40364;52.270;10.546;2023-12-04T11:23:17;100322.44;;;9.82;40.22
54455;BME280;40364;52.270;10.546;2023-12-04T11:25:44;100308.69;;;10.71;40.67
54455;BME280;40364;52.270;10.546;2023-12-04T11:28:14;100309.81;;;9.39;42.05
54455;BME280;40364;52.270;10.546;2023-12-04T11:30:42;100314.38;;;10.01;40.14
54455;BME280;40364;52.270;10.546;2023-12-04T11:33:12;100309.88;;;9.64;42.07
54455;BME280;40364;52.270;10.546;2023-12-04T11:35:39;100300.13;;;10.52;40.58
54455;BME280;40364;52.270;10.546;2023-12-04T11:38:05;100298.53;;;10.26;40.72
54455;BME280;40364;52.270;10.546;2023-12-04T11:40:34;100294.06;;;9.89;41.83
54455;BME280;40364;52.270;10.546;2023-12-04T11:43:05;100284.22;;;11.04;39.99
54455;BME280;40364;52.270;10.546;2023-12-04T11:45:48;100291.22;;;10.22;41.08
54455;BME280;40364;52.270;10.546;2023-12-04T11:48:15;100284.56;;;10.14;41.31
54455;BME280;40364;52.270;10.546;2023-12-04T11:50:43;100284.19;;;11.44;39.40
54455;BME280;40364;52.270;10.546;2023-12-04T11:53:10;100285.84;;;11.33;39.14
54455;BME280;40364;52.270;10.546;2023-12-04T11:55:39;100274.00;;;11.96;38.87
54455;BME280;40364;52.270;10.546;2023-12-04T11:58:08;100278.72;;;11.92;38.60
54455;BME280;40364;52.270;10.546;2023-12-04T12:00:36;100273.81;;;11.29;39.28
54455;BME280;40364;52.270;10.546;2023-12-04T12:03:06;100270.00;;;10.29;41.47
54455;BME280;40364;52.270;10.546;2023-12-04T12:05:35;100268.13;;;10.21;41.61
54455;BME280;40364;52.270;10.546;2023-12-04T12:08:05;100255.81;;;10.59;41.12
54455;BME280;40364;52.270;10.546;2023-12-04T12:10:32;100259.31;;;10.31;41.51
54455;BME280;40364;52.270;10.546;2023-12-04T12:12:59;100253.75;;;10.31;41.03
54455;BME280;40364;52.270;10.546;2023-12-04T12:15:27;100257.69;;;9.03;42.71
54455;BME280;40364;52.270;10.546;2023-12-04T12:17:54;100234.94;;;10.04;41.43
54455;BME280;40364;52.270;10.546;2023-12-04T12:20:22;100236.88;;;10.64;41.64
54455;BME280;40364;52.270;10.546;2023-12-04T12:22:49;100228.34;;;10.73;41.38
54455;BME280;40364;52.270;10.546;2023-12-04T12:25:17;100229.13;;;10.45;41.60
54455;BME280;40364;52.270;10.546;2023-12-04T12:27:45;100228.16;;;10.66;40.78
54455;BME280;40364;52.270;10.546;2023-12-04T12:30:11;100225.84;;;10.68;40.96
54455;BME280;40364;52.270;10.546;2023-12-04T12:32:38;100224.63;;;10.81;40.67
54455;BME280;40364;52.270;10.546;2023-12-04T12:35:06;100227.63;;;10.48;40.98
54455;BME280;40364;52.270;10.546;2023-12-04T12:37:35;100226.91;;;10.63;40.89
54455;BME280;40364;52.270;10.546;2023-12-04T12:40:04;100221.69;;;10.50;40.82
54455;BME280;40364;52.270;10.546;2023-12-04T12:42:34;100207.94;;;10.29;41.16
54455;BME280;40364;52.270;10.546;2023-12-04T12:45:01;100200.41;;;10.05;40.80
54455;BME280;40364;52.270;10.546;2023-12-04T12:47:29;100199.84;;;10.64;39.78
54455;BME280;40364;52.270;10.546;2023-12-04T12:49:56;100197.13;;;10.15;40.08
54455;BME280;40364;52.270;10.546;2023-12-04T12:52:23;100197.78;;;10.61;40.07